Time;durP1;ratioP1;P1;durP2;ratioP2;P2;SDS_P1;SDS_P2;PMS_P1;PMS_P2;Temp;Humidity;BMP_temperature;BMP_pressure;BME280_temperature;BME280_humidity;BME280_pressure;Samples;Min_cycle;Max_cycle;Signal;HPM_P1;HPM_P2
2023/10/15 00:00:22;;;;;;;8.88;1.30;;;10.60;99.90;;;;;;5050060;28;20048;-73
2023/10/15 00:02:51;;;;;;;10.02;1.40;;;10.60;99.90;;;;;;5052527;28;20032;-73
2023/10/15 00:05:19;;;;;;;5.38;1.13;;;10.60;99.90;;;;;;5052383;28;20355;-73
2023/10/15 00:07:47;;;;;;;8.45;1.50;;;10.70;99.90;;;;;;5051870;28;20048;-74
2023/10/15 00:10:14;;;;;;;8.02;1.83;;;10.70;99.90;;;;;;5053263;28;20104;-74
2023/10/15 00:12:44;;;;;;;5.50;1.10;;;10.70;99.90;;;;;;5039686;28;20036;-74
2023/10/15 00:15:20;;;;;;;8.73;1.23;;;10.80;99.90;;;;;;5035334;28;20756;-73
2023/10/15 00:17:46;;;;;;;7.03;1.50;;;10.80;99.90;;;;;;5049021;28;20040;-73
2023/10/15 00:20:26;;;;;;;6.82;1.58;;;10.70;99.90;;;;;;5042864;28;20731;-73
2023/10/15 00:22:52;;;;;;;5.82;1.70;;;10.70;99.90;;;;;;5049695;28;20075;-73
2023/10/15 00:25:22;;;;;;;8.43;1.60;;;10.80;99.90;;;;;;5047899;28;20022;-74
2023/10/15 00:27:52;;;;;;;6.85;1.35;;;10.70;99.90;;;;;;5048428;28;20025;-73
2023/10/15 00:30:19;;;;;;;9.25;1.67;;;10.70;99.90;;;;;;5051848;28;20051;-73
2023/10/15 00:32:57;;;;;;;11.52;1.38;;;10.70;99.90;;;;;;5044105;28;20039;-73
2023/10/15 00:35:25;;;;;;;14.65;1.80;;;10.70;99.90;;;;;;5046564;28;20057;-73
2023/10/15 00:37:56;;;;;;;13.48;1.80;;;10.70;99.90;;;;;;5051943;28;20358;-73
2023/10/15 00:40:24;;;;;;;7.22;1.70;;;10.70;99.90;;;;;;5049661;28;20083;-73
2023/10/15 00:42:50;;;;;;;11.15;1.48;;;10.60;99.90;;;;;;5041509;28;20055;-73
2023/10/15 00:45:18;;;;;;;7.30;1.42;;;10.60;99.90;;;;;;5052318;28;20017;-73
2023/10/15 00:48:07;;;;;;;10.48;1.80;;;10.60;99.90;;;;;;5050892;28;20466;-73
2023/10/15 00:50:38;;;;;;;6.28;1.38;;;10.60;99.90;;;;;;5046048;28;20017;-73
2023/10/15 00:53:07;;;;;;;8.05;1.35;;;10.60;99.90;;;;;;5049542;28;20088;-73
2023/10/15 00:55:37;;;;;;;5.30;0.98;;;10.60;99.90;;;;;;5049805;28;20044;-73
2023/10/15 00:58:09;;;;;;;8.82;1.80;;;10.60;99.90;;;;;;5055670;28;20024;-73
2023/10/15 01:00:48;;;;;;;8.45;1.50;;;10.50;99.90;;;;;;5050526;28;20412;-73
2023/10/15 01:03:16;;;;;;;10.80;1.50;;;10.50;99.90;;;;;;5043289;28;20028;-74
2023/10/15 01:05:53;;;;;;;9.57;1.42;;;10.50;99.90;;;;;;5047401;28;20553;-73
2023/10/15 01:08:31;;;;;;;7.88;1.25;;;10.50;99.90;;;;;;5048762;28;20397;-73
2023/10/15 01:11:19;;;;;;;6.80;1.35;;;10.50;99.90;;;;;;5044734;28;20025;-74
2023/10/15 01:13:45;;;;;;;6.57;1.17;;;10.50;99.90;;;;;;5045967;28;20421;-74
2023/10/15 01:16:13;;;;;;;7.25;1.33;;;10.40;99.90;;;;;;5049622;28;20025;-73
2023/10/15 01:18:39;;;;;;;11.15;1.30;;;10.50;99.90;;;;;;5050768;28;20075;-73
2023/10/15 01:21:09;;;;;;;22.52;2.97;;;10.50;99.90;;;;;;5048990;28;20025;-73
2023/10/15 01:29:05;;;;;;;10.80;1.70;;;10.30;99.90;;;;;;5039095;28;20046;-74
2023/10/15 01:31:40;;;;;;;7.40;1.25;;;10.20;99.90;;;;;;5049932;28;20117;-74
2023/10/15 01:34:09;;;;;;;8.75;1.60;;;10.10;99.90;;;;;;5047583;28;20029;-74
2023/10/15 01:36:38;;;;;;;10.27;1.63;;;10.10;99.90;;;;;;5051322;28;20024;-74
2023/10/15 01:39:10;;;;;;;8.95;1.33;;;10.00;99.90;;;;;;5042540;28;20075;-74
2023/10/15 01:41:39;;;;;;;5.13;1.20;;;10.00;99.90;;;;;;5034582;28;20032;-74
2023/10/15 01:44:06;;;;;;;6.63;1.30;;;10.10;99.90;;;;;;5048898;28;20108;-74
2023/10/15 01:47:08;;;;;;;9.20;1.98;;;10.10;99.90;;;;;;5050225;28;20455;-74
2023/10/15 01:49:31;;;;;;;7.03;1.48;;;10.10;99.90;;;;;;5042422;28;20025;-73
2023/10/15 01:52:05;;;;;;;6.85;1.10;;;10.10;99.90;;;;;;5056107;28;20064;-73
2023/10/15 01:54:32;;;;;;;4.43;1.13;;;10.10;99.90;;;;;;5062345;28;20095;-73
2023/10/15 01:57:00;;;;;;;5.07;1.10;;;10.10;99.90;;;;;;5055300;28;20343;-73
2023/10/15 01:59:26;;;;;;;6.20;1.80;;;10.10;99.90;;;;;;5051603;28;20027;-73
2023/10/15 02:01:52;;;;;;;5.72;1.67;;;10.10;99.90;;;;;;5037972;28;20304;-73
2023/10/15 02:04:27;;;;;;;4.88;1.45;;;10.10;99.90;;;;;;5050754;28;20082;-74
2023/10/15 02:06:53;;;;;;;7.53;1.70;;;10.10;99.90;;;;;;5051093;28;20108;-74
2023/10/15 02:09:22;;;;;;;9.65;1.60;;;10.00;99.90;;;;;;5046851;28;20037;-74
2023/10/15 02:11:51;;;;;;;7.60;1.75;;;10.00;99.90;;;;;;5045455;28;20025;-74
2023/10/15 02:14:23;;;;;;;7.10;1.50;;;9.90;99.90;;;;;;5050683;28;20025;-74
2023/10/15 02:16:50;;;;;;;7.45;1.67;;;9.90;99.90;;;;;;5035799;28;20064;-73
2023/10/15 02:22:12;;;;;;;9.98;1.45;;;9.70;99.90;;;;;;5039273;28;20037;-73
2023/10/15 02:24:46;;;;;;;10.05;1.48;;;9.50;99.90;;;;;;5049165;28;20382;-73
2023/10/15 02:27:25;;;;;;;8.88;1.40;;;9.40;99.90;;;;;;5054530;28;20090;-73
2023/10/15 02:29:54;;;;;;;5.07;1.25;;;9.30;99.90;;;;;;5053108;28;20028;-73
2023/10/15 02:32:21;;;;;;;4.07;1.15;;;9.30;99.90;;;;;;5040697;28;20049;-73
2023/10/15 02:34:50;;;;;;;9.82;1.38;;;9.40;99.90;;;;;;5054168;28;20092;-73
2023/10/15 02:37:23;;;;;;;8.13;1.05;;;9.40;99.90;;;;;;5054808;28;20385;-73
2023/10/15 02:39:52;;;;;;;4.68;1.13;;;9.30;99.90;;;;;;5042849;28;20793;-73
2023/10/15 02:42:20;;;;;;;7.43;1.55;;;9.40;99.90;;;;;;5046908;28;20064;-73
2023/10/15 02:44:52;;;;;;;4.05;1.20;;;9.40;99.90;;;;;;5040577;28;20032;-73
2023/10/15 02:50:03;;;;;;;2.00;1.00;;;9.30;99.90;;;;;;5052747;28;20452;-73
2023/10/15 02:52:44;;;;;;;3.17;1.00;;;9.30;99.90;;;;;;5054247;28;20383;-73
2023/10/15 02:55:14;;;;;;;1.80;0.75;;;9.20;99.90;;;;;;5049879;28;20037;-73
2023/10/15 02:57:41;;;;;;;5.82;1.17;;;9.10;99.90;;;;;;5041467;28;20481;-73
2023/10/15 03:03:08;;;;;;;5.25;0.82;;;9.00;99.90;;;;;;5046586;28;20040;-73
2023/10/15 03:05:39;;;;;;;2.97;1.02;;;9.10;99.90;;;;;;5053873;28;20036;-73
2023/10/15 03:08:05;;;;;;;4.30;1.13;;;9.10;99.90;;;;;;5054415;28;20098;-73
2023/10/15 03:13:15;;;;;;;3.58;0.98;;;9.00;99.90;;;;;;5054026;28;20083;-73
2023/10/15 03:15:50;;;;;;;6.57;1.27;;;9.00;99.90;;;;;;5053574;28;20462;-73
2023/10/15 03:18:22;;;;;;;;;;;9.00;99.90;;;;;;5054175;28;20693;-73
2023/10/15 03:20:49;;;;;;;5.60;1.35;;;9.00;99.90;;;;;;5049260;28;19920;-73
2023/10/15 03:23:19;;;;;;;5.85;1.35;;;9.00;99.90;;;;;;5053767;28;20028;-73
2023/10/15 03:25:57;;;;;;;4.10;1.30;;;9.10;99.90;;;;;;5054143;28;20752;-73
2023/10/15 03:28:23;;;;;;;6.05;1.30;;;9.10;99.90;;;;;;5053463;28;20029;-73
2023/10/15 03:30:54;;;;;;;2.78;0.88;;;9.10;99.90;;;;;;5052210;28;20021;-73
2023/10/15 03:33:22;;;;;;;6.53;1.02;;;9.10;99.90;;;;;;5053004;28;20025;-73
2023/10/15 03:35:54;;;;;;;5.43;1.17;;;9.10;99.90;;;;;;5053500;28;20092;-73
2023/10/15 03:38:23;;;;;;;8.80;1.25;;;9.10;99.90;;;;;;5052838;28;20045;-73
2023/10/15 03:40:50;;;;;;;4.78;1.20;;;9.00;99.90;;;;;;5044432;28;20029;-73
2023/10/15 03:43:20;;;;;;;3.78;1.13;;;9.00;99.90;;;;;;5053489;28;20029;-73
2023/10/15 03:45:53;;;;;;;9.25;1.30;;;9.10;99.90;;;;;;5053859;28;20425;-73
2023/10/15 03:48:30;;;;;;;9.60;1.27;;;9.10;99.90;;;;;;5053082;28;20079;-73
2023/10/15 03:50:57;;;;;;;5.55;1.50;;;9.10;99.90;;;;;;5047316;28;20034;-73
2023/10/15 03:53:27;;;;;;;10.60;1.50;;;9.10;99.90;;;;;;5045120;28;20454;-73
2023/10/15 03:55:57;;;;;;;9.93;1.40;;;9.10;99.90;;;;;;5047535;28;20044;-73
2023/10/15 03:58:23;;;;;;;7.85;1.73;;;9.10;99.90;;;;;;5053264;28;20025;-73
2023/10/15 04:00:55;;;;;;;15.27;1.33;;;9.10;99.90;;;;;;5040206;28;20021;-73
2023/10/15 04:03:35;;;;;;;9.52;1.48;;;9.20;99.90;;;;;;5053162;28;20098;-73
2023/10/15 04:06:01;;;;;;;10.02;1.42;;;9.20;99.90;;;;;;5048421;28;20547;-73
2023/10/15 04:08:32;;;;;;;8.77;1.65;;;9.20;99.90;;;;;;5045819;28;20030;-73
2023/10/15 04:10:59;;;;;;;11.52;1.70;;;9.20;99.90;;;;;;5039272;28;20025;-73
2023/10/15 04:13:27;;;;;;;11.15;1.80;;;9.10;99.90;;;;;;5051945;28;20045;-73
2023/10/15 04:15:56;;;;;;;11.57;1.70;;;9.10;99.90;;;;;;5051438;28;20079;-73
2023/10/15 04:18:23;;;;;;;9.88;1.63;;;9.20;99.90;;;;;;5049753;28;20481;-73
2023/10/15 04:20:49;;;;;;;14.15;1.70;;;9.20;99.90;;;;;;5048949;28;20029;-73
2023/10/15 04:23:30;;;;;;;5.50;1.20;;;9.30;99.90;;;;;;5052130;28;20560;-73
2023/10/15 04:26:14;;;;;;;11.85;1.65;;;9.30;99.90;;;;;;5052278;28;20021;-73
2023/10/15 04:28:41;;;;;;;8.02;1.40;;;9.30;99.90;;;;;;5052805;28;20029;-73
2023/10/15 04:31:20;;;;;;;10.43;1.55;;;9.30;99.90;;;;;;5052130;28;20021;-73
2023/10/15 04:33:50;;;;;;;5.85;1.42;;;9.30;99.90;;;;;;5052375;28;20113;-73
2023/10/15 04:36:16;;;;;;;8.27;1.73;;;9.40;99.90;;;;;;5051943;28;20587;-73
2023/10/15 04:38:42;;;;;;;12.43;1.38;;;9.40;99.90;;;;;;5049727;28;20037;-73
2023/10/15 04:41:10;;;;;;;8.70;1.55;;;9.40;99.90;;;;;;5052553;28;20056;-73
2023/10/15 04:43:46;;;;;;;12.32;1.80;;;9.40;99.90;;;;;;5052232;28;20020;-73
2023/10/15 04:46:17;;;;;;;12.20;1.90;;;9.30;99.90;;;;;;5052178;28;20021;-72
2023/10/15 04:48:46;;;;;;;9.00;1.42;;;9.20;99.90;;;;;;5051053;28;20517;-73
2023/10/15 04:51:12;;;;;;;11.38;1.58;;;9.20;99.90;;;;;;5050139;28;20043;-73
2023/10/15 04:53:44;;;;;;;8.73;1.40;;;9.20;99.90;;;;;;5043515;28;20035;-73
2023/10/15 04:56:11;;;;;;;10.23;1.77;;;9.20;99.90;;;;;;5051421;28;20117;-73
2023/10/15 04:58:37;;;;;;;9.60;1.73;;;9.20;99.90;;;;;;5050104;28;20021;-73
2023/10/15 05:01:04;;;;;;;8.50;1.30;;;9.20;99.90;;;;;;5040458;28;20086;-73
2023/10/15 05:03:31;;;;;;;8.23;1.50;;;9.20;99.90;;;;;;5051431;28;20033;-73
2023/10/15 05:06:06;;;;;;;10.43;1.50;;;9.20;99.90;;;;;;5039982;28;20035;-73
2023/10/15 05:08:32;;;;;;;10.75;1.67;;;9.20;99.90;;;;;;5051459;28;20017;-73
2023/10/15 05:10:58;;;;;;;6.82;1.40;;;9.10;99.90;;;;;;5049842;28;20115;-73
2023/10/15 05:13:26;;;;;;;6.88;1.15;;;9.10;99.90;;;;;;5051253;28;20501;-73
2023/10/15 05:15:52;;;;;;;7.22;1.48;;;9.10;99.90;;;;;;5051623;28;20053;-73
2023/10/15 05:18:18;;;;;;;6.65;1.33;;;9.10;99.90;;;;;;5049662;28;20104;-73
2023/10/15 05:20:47;;;;;;;2.97;1.00;;;9.10;99.90;;;;;;5046323;28;20025;-73
2023/10/15 05:23:13;;;;;;;7.15;1.10;;;9.10;99.90;;;;;;5051248;28;20009;-73
2023/10/15 05:25:39;;;;;;;6.55;1.10;;;9.00;99.90;;;;;;5048977;28;20419;-73
2023/10/15 05:28:06;;;;;;;2.85;0.98;;;9.00;99.90;;;;;;5049951;28;20545;-73
2023/10/15 05:30:31;;;;;;;7.82;0.98;;;9.00;99.90;;;;;;5051457;28;20366;-73
2023/10/15 05:33:00;;;;;;;6.47;1.25;;;8.90;99.90;;;;;;5050994;28;20086;-73
2023/10/15 05:35:29;;;;;;;7.15;1.15;;;8.90;99.90;;;;;;5051079;28;20025;-73
2023/10/15 05:37:55;;;;;;;8.00;0.82;;;8.90;99.90;;;;;;5051093;28;20086;-73
2023/10/15 05:40:24;;;;;;;4.15;0.90;;;8.90;99.90;;;;;;5051089;28;20024;-73
2023/10/15 05:42:51;;;;;;;6.80;1.38;;;8.90;99.90;;;;;;5049462;28;20079;-73
2023/10/15 05:45:17;;;;;;;7.93;0.85;;;8.90;99.90;;;;;;5046595;28;20016;-73
2023/10/15 05:47:43;;;;;;;7.40;1.20;;;8.90;99.90;;;;;;5050724;28;20033;-73
2023/10/15 05:50:09;;;;;;;5.78;1.00;;;8.90;99.90;;;;;;5049039;28;20509;-73
2023/10/15 05:52:35;;;;;;;6.03;0.90;;;8.90;99.90;;;;;;5050545;28;20069;-73
2023/10/15 05:55:01;;;;;;;7.80;1.52;;;8.90;99.90;;;;;;5051176;28;20029;-73
2023/10/15 05:57:28;;;;;;;5.22;1.17;;;8.90;99.90;;;;;;5046704;28;20545;-73
2023/10/15 05:59:54;;;;;;;8.15;1.10;;;9.00;99.90;;;;;;5050693;28;20040;-73
2023/10/15 06:02:20;;;;;;;6.55;1.35;;;9.00;99.90;;;;;;5048629;28;20017;-73
2023/10/15 06:04:47;;;;;;;6.70;1.60;;;9.00;99.90;;;;;;5050788;28;20481;-73
2023/10/15 06:07:13;;;;;;;9.38;1.55;;;9.00;99.90;;;;;;5050764;28;20028;-73
2023/10/15 06:09:38;;;;;;;7.60;1.60;;;9.00;99.90;;;;;;5048542;28;20036;-73
2023/10/15 06:12:05;;;;;;;7.80;1.38;;;9.00;99.90;;;;;;5048541;28;20013;-73
2023/10/15 06:14:31;;;;;;;8.18;1.85;;;9.00;99.90;;;;;;5048353;28;20025;-73
2023/10/15 06:16:58;;;;;;;10.43;1.38;;;9.00;99.90;;;;;;5041110;28;20482;-73
2023/10/15 06:19:24;;;;;;;6.70;1.45;;;9.10;99.90;;;;;;5051530;28;20021;-73
2023/10/15 06:21:50;;;;;;;7.53;1.63;;;9.10;99.90;;;;;;5051241;28;20017;-73
2023/10/15 06:24:16;;;;;;;8.40;1.10;;;9.10;99.90;;;;;;5049398;28;20025;-73
2023/10/15 06:26:41;;;;;;;10.15;1.50;;;9.10;99.90;;;;;;5049371;28;20029;-73
2023/10/15 06:29:09;;;;;;;11.55;1.30;;;9.10;99.90;;;;;;5049044;28;20023;-73
2023/10/15 06:31:38;;;;;;;6.75;1.25;;;9.20;99.90;;;;;;5045734;28;20096;-73
2023/10/15 06:34:04;;;;;;;8.82;1.42;;;9.20;99.90;;;;;;5044817;28;20366;-73
2023/10/15 06:36:29;;;;;;;7.82;1.25;;;9.20;99.90;;;;;;5050229;28;20037;-73
2023/10/15 06:38:56;;;;;;;16.30;1.80;;;9.20;99.90;;;;;;5050394;28;20028;-73
2023/10/15 06:41:23;;;;;;;8.15;1.30;;;9.20;99.90;;;;;;5050798;28;20032;-73
2023/10/15 06:43:48;;;;;;;10.40;1.40;;;9.10;99.90;;;;;;5049465;28;20031;-73
2023/10/15 06:46:14;;;;;;;11.35;1.65;;;9.10;99.90;;;;;;5043782;28;20029;-74
2023/10/15 06:48:41;;;;;;;15.80;1.48;;;9.10;99.90;;;;;;5046295;28;20036;-74
2023/10/15 06:51:06;;;;;;;6.25;1.55;;;9.20;99.90;;;;;;5048476;28;20456;-72
2023/10/15 06:53:34;;;;;;;9.70;1.48;;;9.30;99.90;;;;;;5048347;28;20048;-72
2023/10/15 06:56:00;;;;;;;11.80;1.50;;;9.30;99.90;;;;;;5049660;28;20025;-72
2023/10/15 06:58:28;;;;;;;11.60;1.42;;;9.30;99.90;;;;;;5048742;28;20036;-72
2023/10/15 07:00:55;;;;;;;5.85;1.33;;;9.40;99.90;;;;;;5047981;28;20401;-72
2023/10/15 07:03:21;;;;;;;11.18;1.35;;;9.40;99.90;;;;;;5045086;28;20108;-72
2023/10/15 07:05:47;;;;;;;8.75;1.05;;;9.50;99.90;;;;;;5048117;28;20439;-72
2023/10/15 07:08:12;;;;;;;10.68;1.83;;;9.50;99.90;;;;;;5055405;28;20029;-72
2023/10/15 07:10:39;;;;;;;10.52;1.65;;;9.50;99.90;;;;;;5048653;28;20025;-72
2023/10/15 07:13:04;;;;;;;13.40;1.65;;;9.50;99.90;;;;;;5049461;28;20021;-72
2023/10/15 07:15:30;;;;;;;11.98;1.95;;;9.50;99.90;;;;;;5051784;28;20028;-72
2023/10/15 07:17:56;;;;;;;12.23;1.70;;;9.60;99.90;;;;;;5043690;28;20036;-72
2023/10/15 07:20:24;;;;;;;16.10;1.65;;;9.60;99.90;;;;;;5052707;28;20074;-72
2023/10/15 07:22:50;;;;;;;11.02;1.63;;;9.50;99.90;;;;;;5045254;28;20021;-72
2023/10/15 07:25:17;;;;;;;7.22;1.33;;;9.50;99.90;;;;;;5049072;28;20033;-72
2023/10/15 07:27:48;;;;;;;9.32;1.15;;;9.50;99.90;;;;;;5051270;28;20158;-72
2023/10/15 07:30:15;;;;;;;7.85;1.27;;;9.50;99.90;;;;;;5052266;28;20056;-72
2023/10/15 07:32:42;;;;;;;7.30;1.38;;;9.40;99.90;;;;;;5048254;28;20040;-72
2023/10/15 07:35:13;;;;;;;5.78;1.35;;;9.40;99.90;;;;;;5044442;28;20028;-72
2023/10/15 07:37:44;;;;;;;6.70;1.10;;;9.40;99.90;;;;;;5042539;28;20032;-72
2023/10/15 07:40:16;;;;;;;9.23;1.35;;;9.40;99.90;;;;;;5051798;28;20138;-72
2023/10/15 07:42:48;;;;;;;8.55;1.65;;;9.40;99.90;;;;;;5039405;28;20381;-72
2023/10/15 07:45:14;;;;;;;8.45;1.40;;;9.50;99.90;;;;;;5051319;28;20033;-72
2023/10/15 07:47:40;;;;;;;6.07;0.90;;;9.50;99.90;;;;;;5049208;28;20139;-72
2023/10/15 07:50:18;;;;;;;8.00;1.00;;;9.50;99.90;;;;;;5052353;28;20021;-72
2023/10/15 07:52:45;;;;;;;6.07;1.10;;;9.60;99.90;;;;;;5052106;28;20526;-72
2023/10/15 07:55:11;;;;;;;6.78;1.38;;;9.60;99.90;;;;;;5054560;28;20021;-72
2023/10/15 07:57:39;;;;;;;7.47;1.50;;;9.70;99.90;;;;;;5050841;28;20021;-72
2023/10/15 08:00:14;;;;;;;14.07;1.45;;;9.80;99.90;;;;;;5052392;28;20029;-72
2023/10/15 08:02:41;;;;;;;;;;;9.90;99.90;;;;;;5044164;28;20040;-72
2023/10/15 08:05:08;;;;;;;11.95;1.83;;;9.90;99.90;;;;;;5041875;28;20316;-72
2023/10/15 08:07:34;;;;;;;10.70;1.83;;;9.90;99.90;;;;;;5049004;28;20036;-73
2023/10/15 08:10:00;;;;;;;10.50;1.42;;;9.90;99.90;;;;;;5047733;28;20033;-72
2023/10/15 08:12:27;;;;;;;11.63;1.55;;;9.90;99.90;;;;;;5037450;28;20026;-72
2023/10/15 08:14:54;;;;;;;11.20;1.80;;;9.80;99.90;;;;;;5054309;28;20056;-72
2023/10/15 08:17:23;;;;;;;9.40;1.63;;;9.80;99.90;;;;;;5053649;28;20031;-72
2023/10/15 08:19:48;;;;;;;7.88;1.90;;;9.70;99.90;;;;;;5043977;28;20025;-72
2023/10/15 08:22:14;;;;;;;10.40;1.73;;;9.70;99.90;;;;;;5054234;28;20113;-72
2023/10/15 08:24:40;;;;;;;8.93;1.65;;;9.70;99.90;;;;;;5052055;28;20126;-72
2023/10/15 08:27:06;;;;;;;9.07;1.60;;;9.70;99.90;;;;;;5039827;28;20028;-72
2023/10/15 08:29:31;;;;;;;10.13;1.00;;;9.60;99.90;;;;;;5047234;28;20056;-72
2023/10/15 08:31:57;;;;;;;8.40;1.02;;;9.60;99.90;;;;;;5047930;28;20029;-72
2023/10/15 08:34:23;;;;;;;9.80;1.10;;;9.40;99.90;;;;;;5048867;28;21313;-73
2023/10/15 08:36:49;;;;;;;5.03;1.02;;;9.40;99.90;;;;;;5048353;28;20167;-73
2023/10/15 08:39:14;;;;;;;6.65;1.15;;;9.30;99.90;;;;;;5048819;28;20422;-73
2023/10/15 08:41:43;;;;;;;6.80;1.30;;;9.30;99.90;;;;;;5049155;28;20053;-73
2023/10/15 08:44:09;;;;;;;9.88;1.40;;;9.40;99.90;;;;;;5062509;28;20681;-72
2023/10/15 08:46:39;;;;;;;9.73;1.35;;;9.40;99.90;;;;;;5048695;28;20017;-72
2023/10/15 08:49:08;;;;;;;6.20;1.25;;;9.50;99.90;;;;;;5048282;28;20098;-73
2023/10/15 08:51:35;;;;;;;7.00;1.33;;;9.60;99.90;;;;;;5044846;28;20045;-73
2023/10/15 08:54:02;;;;;;;10.98;1.40;;;9.60;99.90;;;;;;5048548;28;20021;-73
2023/10/15 08:56:32;;;;;;;5.03;1.10;;;9.70;99.90;;;;;;5047959;28;20078;-73
2023/10/15 08:58:59;;;;;;;6.72;1.00;;;9.70;99.90;;;;;;5047027;28;20056;-72
2023/10/15 09:01:25;;;;;;;6.60;1.00;;;9.70;99.90;;;;;;5049777;28;20051;-73
2023/10/15 09:03:52;;;;;;;7.80;1.20;;;9.70;99.90;;;;;;5045632;28;20065;-73
2023/10/15 09:06:19;;;;;;;10.85;1.17;;;9.80;99.90;;;;;;5049372;28;20021;-73
2023/10/15 09:08:45;;;;;;;10.10;1.48;;;9.90;99.90;;;;;;5046014;28;20501;-73
2023/10/15 09:11:11;;;;;;;7.05;1.10;;;9.90;99.90;;;;;;5052655;28;20472;-73
2023/10/15 09:13:37;;;;;;;8.02;1.35;;;9.90;99.90;;;;;;5049825;28;20060;-73
2023/10/15 09:16:07;;;;;;;9.63;1.30;;;10.00;99.90;;;;;;5050316;28;20023;-73
2023/10/15 09:18:36;;;;;;;8.80;1.30;;;10.00;99.90;;;;;;5049426;28;20112;-73
2023/10/15 09:21:08;;;;;;;8.25;1.80;;;10.00;99.90;;;;;;5043356;28;20021;-72
2023/10/15 09:23:36;;;;;;;10.05;1.60;;;10.00;99.90;;;;;;5047226;28;20386;-73
2023/10/15 09:26:04;;;;;;;7.68;1.40;;;10.00;99.90;;;;;;5046839;28;20078;-73
2023/10/15 09:28:30;;;;;;;7.68;1.52;;;10.00;99.90;;;;;;5046549;28;20025;-72
2023/10/15 09:31:06;;;;;;;7.68;1.30;;;10.00;99.90;;;;;;5049363;28;20052;-73
2023/10/15 09:33:33;;;;;;;10.45;1.75;;;10.00;99.90;;;;;;5048814;28;20407;-73
2023/10/15 09:36:02;;;;;;;9.15;1.40;;;10.10;99.90;;;;;;5048817;28;20055;-73
2023/10/15 09:38:31;;;;;;;11.00;1.85;;;10.10;99.90;;;;;;5045976;28;20505;-73
2023/10/15 09:40:58;;;;;;;12.90;1.63;;;10.00;99.90;;;;;;5045293;28;20469;-73
2023/10/15 09:43:25;;;;;;;9.02;1.80;;;10.10;99.90;;;;;;5049394;28;20013;-73
2023/10/15 09:45:54;;;;;;;6.70;1.55;;;10.30;99.90;;;;;;5049282;28;20052;-73
2023/10/15 09:48:25;;;;;;;11.40;1.50;;;10.40;99.90;;;;;;5048963;28;20032;-73
2023/10/15 09:50:59;;;;;;;7.60;1.67;;;10.70;99.90;;;;;;5048025;28;20025;-73
2023/10/15 09:53:27;;;;;;;12.57;1.67;;;10.80;99.90;;;;;;5049455;28;20055;-73
2023/10/15 09:55:55;;;;;;;8.27;1.48;;;11.00;99.90;;;;;;5050409;28;20025;-73
2023/10/15 09:58:22;;;;;;;13.10;1.50;;;11.20;99.90;;;;;;5049433;28;20374;-73
2023/10/15 10:01:16;;;;;;;12.95;1.85;;;11.40;99.90;;;;;;5048997;28;20036;-73
2023/10/15 10:03:48;;;;;;;9.73;1.45;;;11.70;99.90;;;;;;5049167;28;20033;-73
2023/10/15 10:06:32;;;;;;;7.78;1.52;;;11.80;99.90;;;;;;5049836;28;20501;-73
2023/10/15 10:09:29;;;;;;;11.18;1.30;;;11.70;99.90;;;;;;5048640;28;20029;-73
2023/10/15 10:12:13;;;;;;;7.07;1.08;;;11.60;99.90;;;;;;5049175;28;20470;-73
2023/10/15 10:14:58;;;;;;;7.00;1.10;;;11.50;99.90;;;;;;5049940;28;20021;-73
2023/10/15 10:17:27;;;;;;;5.65;1.05;;;11.50;99.90;;;;;;5048835;28;20481;-73
2023/10/15 10:19:53;;;;;;;5.07;1.27;;;11.60;99.90;;;;;;5047977;28;20039;-73
2023/10/15 10:22:28;;;;;;;3.78;0.80;;;11.80;99.90;;;;;;5040653;28;20030;-73
2023/10/15 10:24:58;;;;;;;5.60;1.45;;;11.90;99.90;;;;;;5049288;28;20021;-73
2023/10/15 10:27:24;;;;;;;6.97;1.30;;;11.90;99.90;;;;;;5049858;28;20017;-73
2023/10/15 10:29:54;;;;;;;5.22;1.50;;;11.90;99.90;;;;;;5048854;28;20029;-73
2023/10/15 10:32:22;;;;;;;9.63;1.50;;;11.90;99.90;;;;;;5049235;28;20386;-73
2023/10/15 10:35:20;;;;;;;9.25;1.52;;;12.00;99.90;;;;;;5048853;28;20017;-73
2023/10/15 10:38:05;;;;;;;11.88;1.85;;;12.00;99.90;;;;;;5048955;28;20031;-73
2023/10/15 10:41:00;;;;;;;8.32;1.38;;;12.20;99.90;;;;;;5049152;28;20104;-73
2023/10/15 10:43:27;;;;;;;7.32;1.55;;;12.20;99.90;;;;;;5049863;28;20252;-72
2023/10/15 10:46:02;;;;;;;9.02;1.50;;;12.20;99.90;;;;;;5036400;28;20021;-72
2023/10/15 10:48:29;;;;;;;;;;;12.10;99.90;;;;;;5046608;28;20033;-73
2023/10/15 10:51:19;;;;;;;14.45;1.92;;;12.10;99.90;;;;;;5051604;28;19911;-73
2023/10/15 10:53:57;;;;;;;14.10;1.80;;;12.00;99.90;;;;;;5053479;28;20029;-72
2023/10/15 10:56:41;;;;;;;10.18;1.35;;;12.00;99.90;;;;;;5053075;28;20025;-72
2023/10/15 10:59:07;;;;;;;7.78;1.33;;;12.10;99.90;;;;;;5052100;28;20033;-72
2023/10/15 11:01:41;;;;;;;9.13;1.50;;;12.20;99.90;;;;;;5046502;28;20475;-72
2023/10/15 11:04:09;;;;;;;5.70;1.25;;;12.30;99.90;;;;;;5049621;28;20032;-72
2023/10/15 11:06:39;;;;;;;4.70;1.20;;;12.30;99.90;;;;;;5055861;28;20400;-72
2023/10/15 11:09:15;;;;;;;81.43;34.83;;;12.30;99.90;;;;;;5072908;28;20033;-72
2023/10/15 11:11:41;;;;;;;7.82;2.03;;;12.30;99.90;;;;;;5060279;28;20032;-72
2023/10/15 11:14:07;;;;;;;14.15;6.40;;;12.30;99.90;;;;;;5056866;28;20028;-72
2023/10/15 11:16:33;;;;;;;6.18;1.45;;;12.30;99.90;;;;;;5054609;28;20452;-72
2023/10/15 11:18:58;;;;;;;77.45;28.58;;;12.30;99.90;;;;;;5056985;28;20037;-72
2023/10/15 11:21:24;;;;;;;22.73;4.65;;;12.30;99.90;;;;;;5057492;28;20443;-72
2023/10/15 11:23:53;;;;;;;10.27;1.50;;;12.40;99.90;;;;;;5054965;28;20051;-72
2023/10/15 11:26:19;;;;;;;10.85;1.33;;;12.50;99.90;;;;;;5055792;28;20025;-73
2023/10/15 11:28:45;;;;;;;4.80;1.00;;;12.70;99.90;;;;;;5056288;28;20048;-73
2023/10/15 11:31:11;;;;;;;8.85;1.40;;;12.80;99.90;;;;;;5052164;28;20405;-73
2023/10/15 11:33:39;;;;;;;8.32;1.20;;;12.80;99.90;;;;;;5055627;28;20040;-72
2023/10/15 11:36:09;;;;;;;6.50;1.15;;;12.90;99.90;;;;;;5050099;28;20025;-72
2023/10/15 11:38:37;;;;;;;8.52;1.50;;;13.10;99.90;;;;;;5052467;28;20017;-72
2023/10/15 11:41:04;;;;;;;11.75;1.20;;;13.30;99.90;;;;;;5052565;28;20056;-72
2023/10/15 11:43:32;;;;;;;4.22;1.05;;;13.40;99.90;;;;;;5051379;28;20033;-72
2023/10/15 11:46:07;;;;;;;7.55;1.17;;;13.20;99.90;;;;;;5057128;28;20053;-72
2023/10/15 11:48:33;;;;;;;;;;;12.90;99.90;;;;;;5071756;28;20036;-73
2023/10/15 11:50:59;;;;;;;6.40;1.08;;;12.60;99.90;;;;;;5055627;28;19913;-73
2023/10/15 11:53:26;;;;;;;7.60;1.35;;;12.50;99.90;;;;;;5057169;28;20485;-72
2023/10/15 11:55:54;;;;;;;8.50;1.48;;;12.50;99.90;;;;;;5056257;28;20036;-72
2023/10/15 11:58:23;;;;;;;6.80;1.20;;;12.50;99.90;;;;;;5056366;28;20029;-72
2023/10/15 12:00:51;;;;;;;7.05;1.23;;;12.30;99.90;;;;;;5056744;28;20033;-72
2023/10/15 12:03:18;;;;;;;8.10;1.27;;;12.10;99.90;;;;;;5050297;28;20029;-72
2023/10/15 12:05:45;;;;;;;7.45;2.10;;;11.80;99.90;;;;;;5068052;28;20094;-73
2023/10/15 12:08:15;;;;;;;8.00;1.65;;;11.70;99.90;;;;;;5053665;28;20025;-72
2023/10/15 12:10:42;;;;;;;9.48;1.30;;;11.70;99.90;;;;;;5057198;28;20139;-71
2023/10/15 12:13:09;;;;;;;7.43;1.20;;;11.70;99.90;;;;;;5054143;28;20024;-72
2023/10/15 12:15:35;;;;;;;5.10;1.20;;;11.70;99.90;;;;;;5056395;28;20025;-72
2023/10/15 12:18:02;;;;;;;5.00;1.38;;;11.70;99.90;;;;;;5055100;28;20029;-72
2023/10/15 12:20:28;;;;;;;11.90;1.40;;;11.70;99.90;;;;;;5054905;28;20440;-72
2023/10/15 12:22:54;;;;;;;9.80;1.67;;;11.70;99.90;;;;;;5053346;28;20025;-72
2023/10/15 12:25:20;;;;;;;6.93;1.60;;;11.60;99.90;;;;;;5054644;28;20048;-72
2023/10/15 12:27:46;;;;;;;7.35;2.00;;;11.60;99.90;;;;;;5055154;28;20029;-72
2023/10/15 12:30:24;;;;;;;9.25;1.80;;;11.50;99.90;;;;;;5051783;28;20075;-72
2023/10/15 12:32:58;;;;;;;7.53;1.70;;;11.50;99.90;;;;;;5051019;28;20024;-72
2023/10/15 12:35:24;;;;;;;7.85;1.60;;;11.50;99.90;;;;;;5051825;28;20017;-72
2023/10/15 12:37:50;;;;;;;9.93;1.65;;;11.40;99.90;;;;;;5053666;28;20033;-72
2023/10/15 12:40:23;;;;;;;10.05;1.50;;;11.40;99.90;;;;;;5055088;28;20025;-72
2023/10/15 12:42:51;;;;;;;10.40;1.60;;;11.50;99.90;;;;;;5055336;28;20044;-72
2023/10/15 12:45:19;;;;;;;12.02;1.60;;;11.50;99.90;;;;;;5055341;28;20052;-72
2023/10/15 12:47:44;;;;;;;6.93;1.45;;;11.60;99.90;;;;;;5056392;28;20021;-72
2023/10/15 12:50:16;;;;;;;10.95;1.60;;;11.70;99.90;;;;;;5044626;28;20025;-72
2023/10/15 12:52:46;;;;;;;7.80;1.30;;;11.70;99.90;;;;;;5056715;28;20443;-72
2023/10/15 12:55:15;;;;;;;8.63;1.67;;;11.80;99.90;;;;;;5056063;28;20029;-72
2023/10/15 12:57:41;;;;;;;9.25;1.20;;;11.90;99.90;;;;;;5056094;28;20397;-72
2023/10/15 13:00:16;;;;;;;9.57;1.40;;;12.10;99.90;;;;;;5055200;28;20104;-72
2023/10/15 13:02:43;;;;;;;8.10;1.30;;;12.30;99.90;;;;;;5038108;28;20567;-72
2023/10/15 13:05:09;;;;;;;7.55;1.40;;;12.40;99.90;;;;;;5066439;28;20021;-72
2023/10/15 13:07:34;;;;;;;9.50;1.60;;;12.40;99.90;;;;;;5054755;28;20032;-72
2023/10/15 13:10:01;;;;;;;9.35;1.52;;;12.40;99.90;;;;;;5044067;28;20057;-72
2023/10/15 13:12:27;;;;;;;12.85;1.42;;;12.40;99.90;;;;;;5050532;28;20021;-72
2023/10/15 13:14:52;;;;;;;8.50;1.58;;;12.50;99.90;;;;;;5039988;28;20026;-72
2023/10/15 13:17:18;;;;;;;8.43;1.02;;;12.60;99.90;;;;;;5052323;28;20040;-72